Storm Events Database

Event Details

Event Thunderstorm Wind
Magnitude 62 kts.
State TEXAS
County/Area COLLIN
WFO FWD
Report Source ASOS
NCDC Data Source CSV
Begin Date 2007-05-02 19:03:00.0 CST-6
Begin Location 2W MCKINNEY
Begin Lat/Lon 33.2/-96.65
End Date 2007-05-02 19:03:00.0 CST-6
Deaths Direct/Indirect 0/0 (fatality details below, when available...)
Injuries Direct/Indirect 0/0
Property Damage 0.00K
Crop Damage 0.00K
Episode Narrative A split in the upper levels of the atmosphere steered several southern stream impulses into north Texas, producing flash flooding, strong winds, and a few tornadoes. The most impressive of these events was a derecho which moved through North Texas on May 2. It produced winds in excess of 85 MPH.
Event Narrative


     ‚Äč



All events for this episode:

Location County/Zone St. Date Time T.Z. Type Mag Dth Inj PrD CrD
Totals: 3 3 2.674M 0.00K
HAMILTON HAMILTON CO. TX 05/01/2007 06:30 CST-6 Heavy Rain 0 0 0.00K 0.00K
CISCO EASTLAND CO. TX 05/01/2007 08:00 CST-6 Lightning 0 0 15.00K 0.00K
HEWITT MCLENNAN CO. TX 05/01/2007 13:00 CST-6 Flash Flood 0 0 0.00K 0.00K
HEARNE ROBERTSON CO. TX 05/01/2007 15:22 CST-6 Flash Flood 0 0 0.00K 0.00K
HEARNE ROBERTSON CO. TX 05/01/2007 15:22 CST-6 Hail 1.00 in. 0 0 0.00K 0.00K
CAMERON MILAM CO. TX 05/01/2007 16:50 CST-6 Lightning 1 1 0.00K 0.00K
THORNDALE MILAM CO. TX 05/01/2007 19:35 CST-6 Flash Flood 0 0 35.00K 0.00K
TEAGUE FREESTONE CO. TX 05/01/2007 21:33 CST-6 Thunderstorm Wind 50 kts. EG 0 0 20.00K 0.00K
THORNDALE MILAM CO. TX 05/01/2007 22:15 CST-6 Flash Flood 0 0 0.00K 0.00K
STEPHENVILLE ERATH CO. TX 05/02/2007 15:00 CST-6 Flash Flood 0 0 0.00K 0.00K
GOLDTHWAITE MILLS CO. TX 05/02/2007 15:07 CST-6 Thunderstorm Wind 50 kts. EG 0 0 0.00K 0.00K
WATSON COMANCHE CO. TX 05/02/2007 15:23 CST-6 Thunderstorm Wind 52 kts. EG 0 0 0.00K 0.00K
COMANCHE COMANCHE CO. TX 05/02/2007 15:36 CST-6 Thunderstorm Wind 52 kts. EG 0 0 0.00K 0.00K
STEPHENVILLE ERATH CO. TX 05/02/2007 15:45 CST-6 Hail 1.75 in. 0 0 5.00K 0.00K
PROCTOR COMANCHE CO. TX 05/02/2007 16:00 CST-6 Thunderstorm Wind 50 kts. EG 0 0 15.00K 0.00K
HICO HAMILTON CO. TX 05/02/2007 16:05 CST-6 Thunderstorm Wind 50 kts. EG 0 1 30.00K 0.00K
CLEBURNE JOHNSON CO. TX 05/02/2007 16:11 CST-6 Tornado EF0 0 0 0.00K 0.00K
WALNUT SPGS BOSQUE CO. TX 05/02/2007 16:25 CST-6 Thunderstorm Wind 70 kts. EG 0 0 70.00K 0.00K
STEPHENVILLE ERATH CO. TX 05/02/2007 16:30 CST-6 Thunderstorm Wind 52 kts. EG 0 0 0.00K 0.00K
BLUM HILL CO. TX 05/02/2007 16:45 CST-6 Thunderstorm Wind 65 kts. EG 0 0 60.00K 0.00K
GODLEY JOHNSON CO. TX 05/02/2007 16:48 CST-6 Thunderstorm Wind 70 kts. EG 0 0 0.00K 0.00K
GRANBURY HOOD CO. TX 05/02/2007 16:48 CST-6 Thunderstorm Wind 50 kts. MG 0 0 0.00K 0.00K
ALVARADO JOHNSON CO. TX 05/02/2007 17:00 CST-6 Thunderstorm Wind 61 kts. EG 0 0 200.00K 0.00K
FT WORTH TARRANT CO. TX 05/02/2007 17:00 CST-6 Thunderstorm Wind 50 kts. EG 0 0 5.00K 0.00K
GRANBURY HOOD CO. TX 05/02/2007 17:00 CST-6 Hail 0.88 in. 0 0 0.00K 0.00K
GRANBURY HOOD CO. TX 05/02/2007 17:00 CST-6 Thunderstorm Wind 50 kts. EG 0 0 12.00K 0.00K
GUSTINE COMANCHE CO. TX 05/02/2007 17:00 CST-6 Flash Flood 1 1 30.00K 0.00K
CLEBURNE JOHNSON CO. TX 05/02/2007 17:05 CST-6 Thunderstorm Wind 70 kts. EG 0 0 5.00K 0.00K
BURLESON JOHNSON CO. TX 05/02/2007 17:15 CST-6 Thunderstorm Wind 50 kts. EG 0 0 15.00K 0.00K
FT WORTH TARRANT CO. TX 05/02/2007 17:15 CST-6 Thunderstorm Wind 65 kts. EG 0 0 200.00K 0.00K
BENBROOK TARRANT CO. TX 05/02/2007 17:20 CST-6 Thunderstorm Wind 65 kts. MG 0 0 0.00K 0.00K
CLEBURNE JOHNSON CO. TX 05/02/2007 17:25 CST-6 Thunderstorm Wind 52 kts. MG 0 0 0.00K 0.00K
FROST NAVARRO CO. TX 05/02/2007 17:30 CST-6 Thunderstorm Wind 50 kts. EG 0 0 2.00K 0.00K
GRANDVIEW JOHNSON CO. TX 05/02/2007 17:30 CST-6 Thunderstorm Wind 50 kts. EG 0 0 20.00K 0.00K
HALLSBURG MCLENNAN CO. TX 05/02/2007 17:30 CST-6 Lightning 1 0 0.00K 0.00K
ALVARADO JOHNSON CO. TX 05/02/2007 17:35 CST-6 Thunderstorm Wind 50 kts. EG 0 0 15.00K 0.00K
GRANDVIEW JOHNSON CO. TX 05/02/2007 17:40 CST-6 Thunderstorm Wind 56 kts. EG 0 0 40.00K 0.00K
BURLESON JOHNSON CO. TX 05/02/2007 17:45 CST-6 Lightning 0 0 220.00K 0.00K
KELLER TARRANT CO. TX 05/02/2007 17:45 CST-6 Thunderstorm Wind 52 kts. EG 0 0 0.00K 0.00K
MILFORD ELLIS CO. TX 05/02/2007 17:45 CST-6 Thunderstorm Wind 61 kts. EG 0 0 250.00K 0.00K
JOHNSONS STATION TARRANT CO. TX 05/02/2007 17:51 CST-6 Thunderstorm Wind 52 kts. MG 0 0 50.00K 0.00K
FLORENCE HILL DALLAS CO. TX 05/02/2007 17:54 CST-6 Thunderstorm Wind 57 kts. MG 0 0 0.00K 0.00K
BEDFORD TARRANT CO. TX 05/02/2007 17:55 CST-6 Thunderstorm Wind 50 kts. EG 0 0 0.00K 0.00K
CLEBURNE JOHNSON CO. TX 05/02/2007 18:00 CST-6 Flash Flood 0 0 15.00K 0.00K
FLORENCE HILL DALLAS CO. TX 05/02/2007 18:00 CST-6 Thunderstorm Wind 50 kts. EG 0 0 30.00K 0.00K
GRAND PRAIRIE DALLAS CO. TX 05/02/2007 18:00 CST-6 Thunderstorm Wind 50 kts. EG 0 0 325.00K 0.00K
GRAPEVINE TARRANT CO. TX 05/02/2007 18:00 CST-6 Thunderstorm Wind 50 kts. EG 0 0 0.00K 0.00K
GRAPEVINE TARRANT CO. TX 05/02/2007 18:00 CST-6 Lightning 0 0 5.00K 0.00K
GRAPEVINE TARRANT CO. TX 05/02/2007 18:00 CST-6 Flash Flood 0 0 0.00K 0.00K
(ADS)ADDISON ARPT DA DALLAS CO. TX 05/02/2007 18:10 CST-6 Thunderstorm Wind 50 kts. EG 0 0 0.00K 0.00K
DALLAS DALLAS CO. TX 05/02/2007 18:14 CST-6 Thunderstorm Wind 53 kts. MG 0 0 0.00K 0.00K
FT WORTH TARRANT CO. TX 05/02/2007 18:15 CST-6 Flash Flood 0 0 70.00K 0.00K
PLANO COLLIN CO. TX 05/02/2007 18:20 CST-6 Thunderstorm Wind 52 kts. EG 0 0 0.00K 0.00K
LEWISVILLE DENTON CO. TX 05/02/2007 18:30 CST-6 Thunderstorm Wind 50 kts. EG 0 0 0.00K 0.00K
MANSFIELD TARRANT CO. TX 05/02/2007 18:30 CST-6 Thunderstorm Wind 56 kts. EG 0 0 40.00K 0.00K
PLANO COLLIN CO. TX 05/02/2007 18:30 CST-6 Thunderstorm Wind 65 kts. EG 0 0 0.00K 0.00K
TERRELL KAUFMAN CO. TX 05/02/2007 18:30 CST-6 Thunderstorm Wind 78 kts. EG 0 0 10.00K 0.00K
GARLAND DALLAS CO. TX 05/02/2007 18:31 CST-6 Thunderstorm Wind 50 kts. EG 0 0 0.00K 0.00K
PLANO COLLIN CO. TX 05/02/2007 18:31 CST-6 Thunderstorm Wind 59 kts. MG 0 0 5.00K 0.00K
ALLEN COLLIN CO. TX 05/02/2007 18:34 CST-6 Thunderstorm Wind 50 kts. EG 0 0 0.00K 0.00K
PAYNE SPRINGS HENDERSON CO. TX 05/02/2007 18:40 CST-6 Thunderstorm Wind 78 kts. EG 0 0 10.00K 0.00K
CADDO MILLS HUNT CO. TX 05/02/2007 18:45 CST-6 Thunderstorm Wind 50 kts. EG 0 0 40.00K 0.00K
CORSICANA NAVARRO CO. TX 05/02/2007 18:45 CST-6 Hail 1.75 in. 0 0 5.00K 0.00K
ENNIS ELLIS CO. TX 05/02/2007 18:45 CST-6 Thunderstorm Wind 50 kts. EG 0 0 35.00K 0.00K
FROST NAVARRO CO. TX 05/02/2007 18:45 CST-6 Thunderstorm Wind 52 kts. EG 0 0 0.00K 0.00K
ROYSE CITY ROCKWALL CO. TX 05/02/2007 18:48 CST-6 Thunderstorm Wind 50 kts. EG 0 0 20.00K 0.00K
LAMPASAS LAMPASAS CO. TX 05/02/2007 18:50 CST-6 Hail 0.88 in. 0 0 0.00K 0.00K
PAYNE SPRINGS HENDERSON CO. TX 05/02/2007 18:50 CST-6 Thunderstorm Wind 60 kts. EG 0 0 60.00K 0.00K
MCKINNEY COLLIN CO. TX 05/02/2007 18:55 CST-6 Thunderstorm Wind 50 kts. EG 0 0 40.00K 0.00K
FRANKSTON ANDERSON CO. TX 05/02/2007 19:00 CST-6 Flash Flood 0 0 40.00K 0.00K
FRISCO COLLIN CO. TX 05/02/2007 19:00 CST-6 Flash Flood 0 0 50.00K 0.00K
FRISCO COLLIN CO. TX 05/02/2007 19:00 CST-6 Thunderstorm Wind 50 kts. EG 0 0 0.00K 0.00K
MILLER GROVE HOPKINS CO. TX 05/02/2007 19:00 CST-6 Thunderstorm Wind 50 kts. EG 0 0 150.00K 0.00K
MCKINNEY COLLIN CO. TX 05/02/2007 19:03 CST-6 Thunderstorm Wind 62 kts. MG 0 0 0.00K 0.00K
ELMO KAUFMAN CO. TX 05/02/2007 19:20 CST-6 Thunderstorm Wind 70 kts. EG 0 0 100.00K 0.00K
SULPHUR SPGS MUNI AR HOPKINS CO. TX 05/02/2007 19:46 CST-6 Thunderstorm Wind 51 kts. MG 0 0 0.00K 0.00K
ROCKDALE MILAM CO. TX 05/02/2007 20:17 CST-6 Hail 1.50 in. 0 0 5.00K 0.00K
MILFORD ELLIS CO. TX 05/03/2007 08:48 CST-6 Hail 0.75 in. 0 0 0.00K 0.00K
ARLINGTON TARRANT CO. TX 05/03/2007 17:30 CST-6 Hail 1.75 in. 0 0 5.00K 0.00K
ARLINGTON TARRANT CO. TX 05/03/2007 17:35 CST-6 Hail 0.75 in. 0 0 0.00K 0.00K
COPPELL DALLAS CO. TX 05/03/2007 17:36 CST-6 Hail 0.75 in. 0 0 0.00K 0.00K
PLANO COLLIN CO. TX 05/03/2007 18:10 CST-6 Lightning 0 0 250.00K 0.00K
GAINESVILLE COOKE CO. TX 05/03/2007 18:12 CST-6 Hail 2.75 in. 0 0 10.00K 0.00K
LINDSAY COOKE CO. TX 05/03/2007 18:40 CST-6 Tornado EF0 0 0 0.00K 0.00K
GAINESVILLE COOKE CO. TX 05/03/2007 18:45 CST-6 Hail 1.00 in. 0 0 0.00K 0.00K
GAINESVILLE COOKE CO. TX 05/03/2007 19:00 CST-6 Flash Flood 0 0 40.00K 0.00K
Totals: 3 3 2.674M 0.00K